»·PEaware :: N208TC L35-KLAX

N208TC :: L35-KLAX

FLIGHT INFORMATION

Flight Status: Arrived
Operator: Privately registered:
United States
More flights under this callsign
Pilot: Thiago S. (19132)
Aircraft: CESSNA 208 CARAVAN
(C208)
More flights by this aircraft type
Origin: L35 Big Bear City
United States
Destination: KLAX Los Angeles Intl
United States
More flights between these airports :: More routes between these airports
Route: +
File this flight plan on PilotEdge
Remarks:
Altitude:
(Current/Filed)
6,500ft
Speed:
(Current/Filed)
160kts
Departed: 24-Mar-19 01:04 PM
Arrived: 24-Mar-19 01:58 PM
Distance/Time
Traveled:
80nm/0:53
Distance/Time
To Go:
Arrived

Flight Plot

Page will automatically refresh every two minutes.

Flight plan parsing failed; only flown route is shown


Map Options




Map Legend


Flown Route
Filed Route
Departure Airport
Arrival Airport
Navaid (VOR, NDB)
Fix

Horizontal Profiles

Position Reports

Time Latitude Longitude Heading Altitude Ground
Speed
24-Mar-19 12:40 34.261764 -116.853779 269 6753ft 0kts
24-Mar-19 12:41 34.261764 -116.853779 269 6753ft 0kts
24-Mar-19 12:42 34.261764 -116.853779 269 6753ft 0kts
24-Mar-19 12:43 34.261764 -116.853779 269 6753ft 0kts
24-Mar-19 12:44 34.261764 -116.853779 269 6753ft 0kts
24-Mar-19 12:45 34.261764 -116.853779 269 6753ft 0kts
24-Mar-19 12:46 34.261764 -116.853779 269 6753ft 0kts
24-Mar-19 12:47 34.261764 -116.853779 269 6753ft 0kts
24-Mar-19 12:48 34.261764 -116.853779 269 6753ft 0kts
24-Mar-19 12:49 34.261764 -116.853779 269 6753ft 0kts
24-Mar-19 12:50 34.261764 -116.853779 269 6753ft 0kts
24-Mar-19 12:51 34.261764 -116.853779 269 6753ft 0kts
24-Mar-19 12:52 34.261764 -116.853779 269 6753ft 0kts
24-Mar-19 12:53 34.261763 -116.853780 269 6753ft 0kts
24-Mar-19 12:54 34.261763 -116.853783 269 6753ft 0kts
24-Mar-19 12:55 34.261763 -116.853786 269 6753ft 0kts
24-Mar-19 12:56 34.261763 -116.853787 269 6753ft 0kts
24-Mar-19 12:57 34.261769 -116.853836 284 6753ft 0kts
24-Mar-19 12:58 34.262394 -116.854582 270 6753ft 5kts
24-Mar-19 12:59 34.262812 -116.856709 270 6753ft 9kts
24-Mar-19 13:00 34.262782 -116.862887 269 6753ft 20kts
24-Mar-19 13:01 34.262839 -116.865133 325 6753ft 2kts
24-Mar-19 13:02 34.263608 -116.864946 90 6753ft 0kts
24-Mar-19 13:03 34.263926 -116.839636 82 7165ft 114kts
24-Mar-19 13:04 34.242279 -116.828109 245 8253ft 144kts
24-Mar-19 13:05 34.241490 -116.881575 270 8546ft 178kts
24-Mar-19 13:06 34.239627 -116.942244 269 8445ft 185kts
24-Mar-19 13:07 34.237346 -117.001943 268 8490ft 173kts
24-Mar-19 13:08 34.229705 -117.059084 261 8477ft 171kts
24-Mar-19 13:09 34.221074 -117.114829 260 8458ft 165kts
24-Mar-19 13:10 34.211203 -117.170440 257 8054ft 170kts
24-Mar-19 13:11 34.200382 -117.226194 257 7654ft 170kts
24-Mar-19 13:12 34.190384 -117.277729 257 7284ft 169kts
24-Mar-19 13:13 34.179620 -117.333251 257 6883ft 169kts
24-Mar-19 13:14 34.170316 -117.388840 265 6487ft 168kts
24-Mar-19 13:15 34.167345 -117.444467 267 6406ft 161kts
24-Mar-19 13:16 34.165611 -117.497192 268 6419ft 155kts
24-Mar-19 13:17 34.164261 -117.549963 268 6411ft 158kts
24-Mar-19 13:18 34.162902 -117.603757 268 6405ft 160kts
24-Mar-19 13:19 34.161561 -117.657338 268 6412ft 160kts
24-Mar-19 13:20 34.160279 -117.709961 268 6423ft 154kts
24-Mar-19 13:21 34.159228 -117.761790 268 6431ft 154kts
24-Mar-19 13:22 34.154943 -117.814864 262 6423ft 161kts
24-Mar-19 13:23 34.149258 -117.867829 262 6495ft 158kts
24-Mar-19 13:24 34.143503 -117.921631 262 6200ft 167kts
24-Mar-19 13:25 34.132267 -117.977192 242 5708ft 171kts
24-Mar-19 13:26 34.108727 -118.027677 240 5208ft 171kts
24-Mar-19 13:28 34.075890 -118.021632 87 4732ft 173kts
24-Mar-19 13:29 34.102252 -117.975031 48 4492ft 161kts
24-Mar-19 13:30 34.136879 -117.951009 323 4479ft 158kts
24-Mar-19 13:31 34.123596 -117.994290 228 4489ft 162kts
24-Mar-19 13:32 34.093470 -118.033982 208 4470ft 159kts
24-Mar-19 13:33 34.082060 -118.002671 43 4531ft 161kts
24-Mar-19 13:34 34.117529 -117.968525 25 4490ft 159kts
24-Mar-19 13:35 34.132957 -118.001429 241 4518ft 161kts
24-Mar-19 13:36 34.094969 -118.028449 201 4491ft 158kts
24-Mar-19 13:37 34.053798 -118.038220 137 4489ft 156kts
24-Mar-19 13:38 34.073202 -118.005537 20 4516ft 150kts
24-Mar-19 13:39 34.114676 -117.987781 14 4483ft 160kts
24-Mar-19 13:40 34.120489 -118.021058 206 4530ft 160kts
24-Mar-19 13:41 34.079624 -118.038519 168 4496ft 153kts
24-Mar-19 13:42 34.087688 -118.002144 22 4523ft 165kts
24-Mar-19 13:43 34.130968 -117.982158 20 4491ft 162kts
24-Mar-19 13:44 34.154992 -118.003774 232 4510ft 158kts
24-Mar-19 13:45 34.119418 -118.032649 245 4509ft 155kts
24-Mar-19 13:45 34.115421 -118.076963 271 4510ft 164kts
24-Mar-19 13:47 34.130567 -118.130516 358 4493ft 157kts
24-Mar-19 13:48 34.162856 -118.101097 101 4479ft 159kts
24-Mar-19 13:48 34.132584 -118.094005 199 4512ft 156kts
24-Mar-19 13:49 34.092717 -118.115588 210 4401ft 163kts
24-Mar-19 13:51 34.051327 -118.156134 221 3816ft 164kts
24-Mar-19 13:51 34.022242 -118.186734 221 3409ft 167kts
24-Mar-19 13:52 33.995752 -118.232045 243 2913ft 166kts
24-Mar-19 13:54 33.974030 -118.286708 244 2057ft 148kts
24-Mar-19 13:54 33.962027 -118.324895 255 1619ft 140kts
24-Mar-19 13:55 33.955815 -118.367861 261 668ft 120kts
24-Mar-19 13:56 33.952522 -118.397948 261 243ft 72kts
24-Mar-19 13:57 33.950439 -118.411110 172 132ft 11kts
24-Mar-19 13:58 33.950089 -118.411057 173 132ft 0kts
24-Mar-19 13:59 33.950088 -118.411057 173 132ft 0kts
24-Mar-19 14:00 33.950087 -118.411057 173 132ft 0kts
24-Mar-19 14:01 33.950086 -118.411057 173 132ft 0kts
24-Mar-19 14:02 33.950085 -118.411056 173 132ft 0kts
24-Mar-19 14:03 33.950084 -118.411056 173 132ft 0kts
24-Mar-19 14:04 33.949804 -118.411019 172 132ft 9kts
24-Mar-19 14:05 33.948053 -118.411627 263 132ft 12kts
24-Mar-19 14:06 33.945634 -118.412850 172 132ft 17kts
24-Mar-19 14:07 33.941966 -118.412298 172 132ft 13kts
24-Mar-19 14:08 33.938394 -118.411768 172 132ft 11kts
24-Mar-19 14:09 33.937829 -118.409138 82 132ft 7kts
24-Mar-19 14:10 33.938062 -118.406925 83 132ft 6kts
24-Mar-19 14:11 33.938048 -118.406311 127 132ft 0kts

Navigation Log

Ident Type
Flight plan parsing failed, navigation log unavailable